Time;durP1;ratioP1;P1;durP2;ratioP2;P2;SDS_P1;SDS_P2;PMS_P1;PMS_P2;Temp;Humidity;BMP_temperature;BMP_pressure;BME280_temperature;BME280_humidity;BME280_pressure;Samples;Min_cycle;Max_cycle;Signal;HPM_P1;HPM_P2
2020/12/17 00:00:50;;;;;;;1999.90;999.90;;;11.30;99.90;;;;;;5050629;28;20418;-66
2020/12/17 00:03:15;;;;;;;1999.90;999.90;;;11.30;99.90;;;;;;5050612;28;20649;-64
2020/12/17 00:05:41;;;;;;;1999.90;999.90;;;11.30;99.90;;;;;;5050523;28;20197;-65
2020/12/17 00:08:07;;;;;;;1999.90;999.90;;;11.30;99.90;;;;;;5050364;28;20612;-64
2020/12/17 00:10:32;;;;;;;1999.90;999.90;;;11.30;99.90;;;;;;5050617;28;20177;-66
2020/12/17 00:12:58;;;;;;;1999.90;999.90;;;11.30;99.90;;;;;;5050570;28;20170;-65
2020/12/17 00:15:24;;;;;;;1999.90;999.90;;;11.30;99.90;;;;;;5050479;28;20202;-65
2020/12/17 00:17:51;;;;;;;1999.90;999.90;;;11.30;99.90;;;;;;5050323;28;20673;-65
2020/12/17 00:20:22;;;;;;;1999.90;999.90;;;11.20;99.90;;;;;;5050121;28;20177;-65
2020/12/17 00:22:48;;;;;;;1999.90;999.90;;;11.20;99.90;;;;;;5050425;28;20465;-65
2020/12/17 00:25:17;;;;;;;1999.90;999.90;;;11.10;99.90;;;;;;5050303;28;20469;-65
2020/12/17 00:27:43;;;;;;;1999.90;999.90;;;11.10;99.90;;;;;;5050210;28;20458;-65
2020/12/17 00:30:13;;;;;;;1999.90;999.90;;;11.10;99.90;;;;;;5050053;28;20407;-64
2020/12/17 00:32:39;;;;;;;1999.90;999.90;;;11.10;99.90;;;;;;5050517;28;20407;-66
2020/12/17 00:35:05;;;;;;;1999.90;999.90;;;11.00;99.90;;;;;;5052763;28;20764;-66
2020/12/17 00:37:33;;;;;;;1999.90;999.90;;;11.00;99.90;;;;;;5053914;28;20543;-64
2020/12/17 00:39:59;;;;;;;1999.90;999.90;;;10.90;99.90;;;;;;5053797;28;20421;-66
2020/12/17 00:42:24;;;;;;;1999.90;999.90;;;10.80;99.90;;;;;;5053960;28;20813;-66
2020/12/17 00:44:50;;;;;;;1999.90;999.90;;;10.80;99.90;;;;;;5053731;28;20454;-65
2020/12/17 00:47:16;;;;;;;1999.90;999.90;;;10.70;99.90;;;;;;5053907;28;20643;-66
2020/12/17 00:49:43;;;;;;;1999.90;999.90;;;10.70;99.90;;;;;;5053596;28;20888;-65
2020/12/17 00:52:09;;;;;;;1999.90;999.90;;;10.60;99.90;;;;;;5053924;28;20261;-66
2020/12/17 00:54:38;;;;;;;1999.90;999.90;;;10.60;99.90;;;;;;5053887;28;20438;-65
2020/12/17 00:57:03;;;;;;;1999.90;999.90;;;10.60;99.90;;;;;;5053626;28;20184;-64
2020/12/17 00:59:29;;;;;;;1999.90;999.90;;;10.60;99.90;;;;;;5053330;28;20420;-66
2020/12/17 01:01:55;;;;;;;1999.90;999.90;;;10.70;99.90;;;;;;5053840;28;20260;-66
2020/12/17 01:04:20;;;;;;;1999.90;999.90;;;10.70;99.90;;;;;;5053488;28;20196;-64
2020/12/17 01:06:46;;;;;;;1999.90;999.90;;;10.70;99.90;;;;;;5053609;28;20168;-65
2020/12/17 01:09:11;;;;;;;1999.90;999.90;;;10.60;99.90;;;;;;5053111;28;20193;-65
2020/12/17 01:11:38;;;;;;;1999.90;999.90;;;10.70;99.90;;;;;;5053305;28;20242;-65
2020/12/17 01:14:04;;;;;;;1999.90;999.90;;;10.70;99.90;;;;;;5053669;28;20187;-66
2020/12/17 01:16:30;;;;;;;1999.90;999.90;;;10.70;99.90;;;;;;5053506;28;20817;-65
2020/12/17 01:18:55;;;;;;;1999.90;999.90;;;10.60;99.90;;;;;;5052926;28;20486;-65
2020/12/17 01:21:21;;;;;;;1999.90;999.90;;;10.60;99.90;;;;;;5053252;28;20414;-66
2020/12/17 01:23:47;;;;;;;1999.90;999.90;;;10.50;99.90;;;;;;5053108;28;20629;-65
2020/12/17 01:26:13;;;;;;;1999.90;999.90;;;10.50;99.90;;;;;;5053115;28;20216;-65
2020/12/17 01:28:40;;;;;;;1999.90;999.90;;;10.60;99.90;;;;;;5052791;28;20185;-65
2020/12/17 01:31:07;;;;;;;1999.90;999.90;;;10.50;99.90;;;;;;5053130;28;20502;-66
2020/12/17 01:33:33;;;;;;;1999.90;999.90;;;10.60;99.90;;;;;;5053059;28;20860;-65
2020/12/17 01:36:06;;;;;;;1999.90;999.90;;;10.50;99.90;;;;;;5053127;28;20422;-65
2020/12/17 01:38:33;;;;;;;1999.90;999.90;;;10.50;99.90;;;;;;5052772;28;20208;-66
2020/12/17 01:40:59;;;;;;;1999.90;999.90;;;10.50;99.90;;;;;;5052885;28;20408;-65
2020/12/17 01:43:25;;;;;;;1999.90;999.90;;;10.50;99.90;;;;;;5052941;28;20409;-65
2020/12/17 01:45:51;;;;;;;1999.90;999.90;;;10.50;99.90;;;;;;5052716;28;20461;-64
2020/12/17 01:48:19;;;;;;;1999.90;999.90;;;10.50;99.90;;;;;;5052501;28;20566;-65
2020/12/17 01:50:45;;;;;;;1999.90;999.90;;;10.50;99.90;;;;;;5052910;28;20911;-66
2020/12/17 01:53:12;;;;;;;1999.90;999.90;;;10.40;99.90;;;;;;5052748;28;20507;-65
2020/12/17 01:55:38;;;;;;;1999.90;999.90;;;10.50;99.90;;;;;;5052492;28;21051;-65
2020/12/17 01:58:05;;;;;;;1999.90;999.90;;;10.50;99.90;;;;;;5052383;28;20803;-65
2020/12/17 02:00:35;;;;;;;1999.90;999.90;;;10.50;99.90;;;;;;5052426;28;20421;-66
2020/12/17 02:03:03;;;;;;;1999.90;999.90;;;10.50;99.90;;;;;;5052501;28;20412;-65
2020/12/17 02:05:29;;;;;;;1999.90;999.90;;;10.50;99.90;;;;;;5052265;28;20457;-65
2020/12/17 02:07:57;;;;;;;1999.90;999.90;;;10.50;99.90;;;;;;5052219;28;20463;-65
2020/12/17 02:10:23;;;;;;;1999.90;999.90;;;10.40;99.90;;;;;;5052115;28;20403;-64
2020/12/17 02:12:49;;;;;;;1999.90;999.90;;;10.40;99.90;;;;;;5052276;28;20476;-65
2020/12/17 02:15:16;;;;;;;1999.90;999.90;;;10.40;99.90;;;;;;5052411;28;20417;-66
2020/12/17 02:17:42;;;;;;;1999.90;999.90;;;10.40;99.90;;;;;;5052102;28;20421;-64
2020/12/17 02:20:09;;;;;;;1999.90;999.90;;;10.30;99.90;;;;;;5051918;28;20920;-65
2020/12/17 02:22:35;;;;;;;1999.90;999.90;;;10.30;99.90;;;;;;5051993;28;20189;-65
2020/12/17 02:25:03;;;;;;;1999.90;999.90;;;10.30;99.90;;;;;;5051997;28;21007;-63
2020/12/17 02:27:29;;;;;;;1999.90;999.90;;;10.30;99.90;;;;;;5051923;28;20492;-65
2020/12/17 02:29:54;;;;;;;1999.90;999.90;;;10.30;99.90;;;;;;5051781;28;20501;-64
2020/12/17 02:32:20;;;;;;;1999.90;999.90;;;10.30;99.90;;;;;;5051890;28;20170;-65
2020/12/17 02:34:46;;;;;;;1999.90;999.90;;;10.20;99.90;;;;;;5051870;28;20178;-65
2020/12/17 02:37:11;;;;;;;1999.90;999.90;;;10.20;99.90;;;;;;5051809;28;20203;-65
2020/12/17 02:39:37;;;;;;;1999.90;999.90;;;10.20;99.90;;;;;;5051391;28;20917;-65
2020/12/17 02:42:03;;;;;;;1999.90;999.90;;;10.10;99.90;;;;;;5051863;28;20439;-65
2020/12/17 02:44:29;;;;;;;1999.90;999.90;;;10.20;99.90;;;;;;5051696;28;20215;-66
2020/12/17 02:46:54;;;;;;;1999.90;999.90;;;10.10;99.90;;;;;;5051543;28;20418;-66
2020/12/17 02:49:20;;;;;;;1999.90;999.90;;;10.10;99.90;;;;;;5051329;28;20192;-65
2020/12/17 02:51:46;;;;;;;1999.90;999.90;;;10.10;99.90;;;;;;5051595;28;20618;-64
2020/12/17 02:54:11;;;;;;;1999.90;999.90;;;10.10;99.90;;;;;;5051714;28;20178;-66
2020/12/17 02:56:37;;;;;;;1999.90;999.90;;;10.10;99.90;;;;;;5050990;28;20196;-65
2020/12/17 02:59:03;;;;;;;1999.90;999.90;;;10.20;99.90;;;;;;5051052;28;20201;-65
2020/12/17 03:01:29;;;;;;;1999.90;999.90;;;10.20;99.90;;;;;;5051369;28;20180;-65
2020/12/17 03:03:54;;;;;;;1999.90;999.90;;;10.20;99.90;;;;;;5051236;28;20409;-65
2020/12/17 03:06:20;;;;;;;1999.90;999.90;;;10.30;99.90;;;;;;5051183;28;20177;-64
2020/12/17 03:08:47;;;;;;;1999.90;999.90;;;10.20;99.90;;;;;;5050953;28;20190;-65
2020/12/17 03:11:12;;;;;;;1999.90;999.90;;;10.20;99.90;;;;;;5051290;28;20173;-65
2020/12/17 03:13:38;;;;;;;1999.90;999.90;;;10.30;99.90;;;;;;5051090;28;20404;-65
2020/12/17 03:16:04;;;;;;;1999.90;999.90;;;10.30;99.90;;;;;;5051098;28;20552;-65
2020/12/17 03:18:30;;;;;;;1999.90;999.90;;;10.40;99.90;;;;;;5051112;28;20269;-64
2020/12/17 03:20:55;;;;;;;1999.90;999.90;;;10.60;99.90;;;;;;5051055;28;20177;-65
2020/12/17 03:23:21;;;;;;;1999.90;999.90;;;10.70;99.90;;;;;;5051001;28;20180;-66
2020/12/17 03:25:47;;;;;;;1999.90;999.90;;;10.70;99.90;;;;;;5050878;28;20195;-64
2020/12/17 03:28:12;;;;;;;1999.90;999.90;;;10.80;99.90;;;;;;5050651;28;20216;-65
2020/12/17 03:30:38;;;;;;;1999.90;999.90;;;10.80;99.90;;;;;;5050933;28;20253;-65
2020/12/17 03:33:04;;;;;;;1999.90;999.90;;;10.90;99.90;;;;;;5050891;28;20168;-64
2020/12/17 03:35:29;;;;;;;1999.90;999.90;;;10.90;99.90;;;;;;5050805;28;20263;-65
2020/12/17 03:37:58;;;;;;;1999.90;999.90;;;10.90;99.90;;;;;;5050620;28;20204;-64
2020/12/17 03:40:28;;;;;;;1999.90;999.90;;;10.90;99.90;;;;;;5050605;28;20180;-65
2020/12/17 03:42:54;;;;;;;1999.90;999.90;;;10.90;99.90;;;;;;5050934;28;20783;-66
2020/12/17 03:45:21;;;;;;;1999.90;999.90;;;11.00;99.90;;;;;;5050660;28;20478;-66
2020/12/17 03:47:47;;;;;;;1999.90;999.90;;;11.00;99.90;;;;;;5050756;28;20476;-65
2020/12/17 03:50:13;;;;;;;1999.90;999.90;;;11.00;99.90;;;;;;5050411;28;21442;-65
2020/12/17 03:52:39;;;;;;;1999.90;999.90;;;11.00;99.90;;;;;;5050664;28;20399;-63
2020/12/17 03:55:05;;;;;;;1999.90;999.90;;;11.00;99.90;;;;;;5050712;28;20412;-66
2020/12/17 03:57:31;;;;;;;1999.90;999.90;;;11.00;99.90;;;;;;5050578;28;20257;-65
2020/12/17 03:59:57;;;;;;;1999.90;999.90;;;11.00;99.90;;;;;;5050581;28;20843;-63
2020/12/17 04:02:23;;;;;;;1999.90;999.90;;;11.10;99.90;;;;;;5050599;28;20420;-65
2020/12/17 04:04:48;;;;;;;1999.90;999.90;;;11.10;99.90;;;;;;5050454;28;20209;-65
2020/12/17 04:07:15;;;;;;;1999.90;999.90;;;11.10;99.90;;;;;;5050642;28;20709;-65
2020/12/17 04:09:41;;;;;;;1999.90;999.90;;;11.20;99.90;;;;;;5052518;28;20187;-65
2020/12/17 04:12:08;;;;;;;1999.90;999.90;;;11.20;99.90;;;;;;5054518;28;20785;-64
2020/12/17 04:14:33;;;;;;;1999.90;999.90;;;11.20;99.90;;;;;;5054426;28;20443;-63
2020/12/17 04:16:59;;;;;;;1999.90;999.90;;;11.20;99.90;;;;;;5054381;28;20437;-65
2020/12/17 04:19:25;;;;;;;1999.90;999.90;;;11.30;99.90;;;;;;5054054;28;20266;-64
2020/12/17 04:21:51;;;;;;;1999.90;999.90;;;11.30;99.90;;;;;;5054308;28;20572;-66
2020/12/17 04:24:17;;;;;;;1999.90;999.90;;;11.30;99.90;;;;;;5054219;28;20502;-64
2020/12/17 04:26:48;;;;;;;1999.90;999.90;;;11.30;99.90;;;;;;5054284;28;20412;-65
2020/12/17 04:29:13;;;;;;;1999.90;999.90;;;11.40;99.90;;;;;;5053896;28;20191;-66
2020/12/17 04:31:39;;;;;;;1999.90;999.90;;;11.40;99.90;;;;;;5054156;28;20412;-64
2020/12/17 04:34:04;;;;;;;1999.90;999.90;;;11.40;99.90;;;;;;5054139;28;20170;-65
2020/12/17 04:36:32;;;;;;;1999.90;999.90;;;11.50;99.90;;;;;;5054054;28;20217;-65
2020/12/17 04:38:58;;;;;;;1999.90;999.90;;;11.50;99.90;;;;;;5053598;28;20263;-66
2020/12/17 04:41:25;;;;;;;1999.90;999.90;;;11.40;99.90;;;;;;5054000;28;20409;-65
2020/12/17 04:43:51;;;;;;;1999.90;999.90;;;11.30;99.90;;;;;;5054027;28;20175;-64
2020/12/17 04:46:19;;;;;;;1999.90;999.90;;;11.30;99.90;;;;;;5070043;22;20496;-62
2020/12/17 04:48:50;;;;;;;1999.90;999.90;;;11.30;99.90;;;;;;5054112;28;20467;-63
2020/12/17 04:51:17;;;;;;;1999.90;999.90;;;11.30;99.90;;;;;;5054530;28;20446;-62
2020/12/17 04:53:44;;;;;;;1999.90;999.90;;;11.30;99.90;;;;;;5054702;28;20412;-62
2020/12/17 04:56:15;;;;;;;1999.90;999.90;;;11.30;99.90;;;;;;5054635;28;20421;-62
2020/12/17 04:58:47;;;;;;;1999.90;999.90;;;11.20;99.90;;;;;;5054303;28;20407;-63
2020/12/17 05:01:17;;;;;;;1999.90;999.90;;;11.10;99.90;;;;;;5054964;28;20404;-61
2020/12/17 05:03:48;;;;;;;1999.90;999.90;;;11.20;99.90;;;;;;5054772;28;20413;-61
2020/12/17 05:06:25;;;;;;;1999.90;999.90;;;11.20;99.90;;;;;;5054459;28;20550;-64
2020/12/17 05:08:52;;;;;;;1999.90;999.90;;;11.20;99.90;;;;;;5054685;28;20921;-62
2020/12/17 05:11:18;;;;;;;1999.90;999.90;;;11.10;99.90;;;;;;5054549;28;20498;-63
2020/12/17 05:13:43;;;;;;;1999.90;999.90;;;11.10;99.90;;;;;;5055451;28;20483;-63
2020/12/17 05:16:09;;;;;;;1999.90;999.90;;;11.00;99.90;;;;;;5054813;28;20546;-63
2020/12/17 05:18:35;;;;;;;1999.90;999.90;;;11.00;99.90;;;;;;5054280;28;20173;-62
2020/12/17 05:21:02;;;;;;;1999.90;999.90;;;10.90;99.90;;;;;;5054161;28;20170;-63
2020/12/17 05:23:28;;;;;;;1999.90;999.90;;;11.00;99.90;;;;;;5054706;28;20244;-63
2020/12/17 05:25:54;;;;;;;1999.90;999.90;;;11.00;99.90;;;;;;5054805;28;20469;-63
2020/12/17 05:28:20;;;;;;;1999.90;999.90;;;11.00;99.90;;;;;;5054203;28;20441;-63
2020/12/17 05:30:46;;;;;;;1999.90;999.90;;;11.00;99.90;;;;;;5054528;28;20413;-63
2020/12/17 05:33:12;;;;;;;1999.90;999.90;;;11.00;99.90;;;;;;5054907;28;20412;-63
2020/12/17 05:35:39;;;;;;;1999.90;999.90;;;11.00;99.90;;;;;;5054647;28;20193;-63
2020/12/17 05:38:07;;;;;;;1999.90;999.90;;;11.00;99.90;;;;;;5055063;28;20651;-63
2020/12/17 05:40:40;;;;;;;1999.90;999.90;;;11.00;99.90;;;;;;5054808;28;20807;-63
2020/12/17 05:43:08;;;;;;;1999.90;999.90;;;11.10;99.90;;;;;;5054620;28;20407;-63
2020/12/17 05:45:34;;;;;;;1999.90;999.90;;;11.00;99.90;;;;;;5054096;28;20929;-62
2020/12/17 05:48:26;;;;;;;1999.90;999.90;;;11.00;99.90;;;;;;5054436;28;20407;-63
2020/12/17 05:50:52;;;;;;;1999.90;999.90;;;11.00;99.90;;;;;;5051551;28;20426;-63
2020/12/17 05:53:17;;;;;;;1999.90;999.90;;;11.10;99.90;;;;;;5054452;28;20466;-61
2020/12/17 05:55:44;;;;;;;1999.90;999.90;;;11.10;99.90;;;;;;5054326;28;20193;-63
2020/12/17 05:58:11;;;;;;;1999.90;999.90;;;11.10;99.90;;;;;;5053921;28;20177;-62
2020/12/17 06:00:37;;;;;;;1999.90;999.90;;;11.10;99.90;;;;;;5053580;28;20434;-63
2020/12/17 06:03:08;;;;;;;1999.90;999.90;;;11.10;99.90;;;;;;5053429;28;20510;-62
2020/12/17 06:05:34;;;;;;;1999.90;999.90;;;11.10;99.90;;;;;;5053669;28;20211;-63
2020/12/17 06:08:00;;;;;;;1999.90;999.90;;;11.10;99.90;;;;;;5053229;28;20766;-62
2020/12/17 06:10:30;;;;;;;1999.90;999.90;;;11.00;99.90;;;;;;5053318;28;20175;-61
2020/12/17 06:13:00;;;;;;;1999.90;999.90;;;11.00;99.90;;;;;;5053393;28;20432;-62
2020/12/17 06:15:30;;;;;;;1999.90;999.90;;;11.00;99.90;;;;;;5053498;28;20437;-63
2020/12/17 06:18:00;;;;;;;1999.90;999.90;;;11.10;99.90;;;;;;5053909;28;20408;-62
2020/12/17 06:20:33;;;;;;;1999.90;999.90;;;11.00;99.90;;;;;;5053491;28;20409;-63
2020/12/17 06:23:03;;;;;;;1999.90;999.90;;;11.10;99.90;;;;;;5052687;28;20417;-63
2020/12/17 06:25:31;;;;;;;1999.90;999.90;;;11.00;99.90;;;;;;5052391;28;20883;-61
2020/12/17 06:27:57;;;;;;;1999.90;999.90;;;11.00;99.90;;;;;;5052269;28;20411;-61
2020/12/17 06:30:25;;;;;;;1999.90;999.90;;;10.90;99.90;;;;;;5052303;28;20790;-61
2020/12/17 06:32:57;;;;;;;1999.90;999.90;;;10.80;99.90;;;;;;5051798;28;20400;-61
2020/12/17 06:35:53;;;;;;;1999.90;999.90;;;10.70;99.90;;;;;;5052419;28;20431;-63
2020/12/17 06:38:25;;;;;;;1999.90;999.90;;;10.70;99.90;;;;;;5051962;28;20411;-63
2020/12/17 06:40:51;;;;;;;1999.90;999.90;;;10.60;99.90;;;;;;5052377;28;20752;-63
2020/12/17 06:43:38;;;;;;;1999.90;999.90;;;10.50;99.90;;;;;;5052336;28;20409;-63
2020/12/17 06:46:05;;;;;;;1999.90;999.90;;;10.50;99.90;;;;;;5052450;28;20558;-63
2020/12/17 06:48:38;;;;;;;1999.90;999.90;;;10.50;99.90;;;;;;5052228;28;20438;-63
2020/12/17 06:51:36;;;;;;;1999.90;999.90;;;10.40;99.90;;;;;;5052429;28;20852;-63
2020/12/17 06:54:07;;;;;;;1999.90;999.90;;;10.40;99.90;;;;;;5052630;28;20426;-62
2020/12/17 06:56:37;;;;;;;1999.90;999.90;;;10.40;99.90;;;;;;5052295;28;20426;-62
2020/12/17 06:59:20;;;;;;;1999.90;999.90;;;10.30;99.90;;;;;;5052546;28;20395;-62
2020/12/17 07:01:47;;;;;;;1999.90;999.90;;;10.40;99.90;;;;;;5052429;28;20440;-64
2020/12/17 07:04:36;;;;;;;1999.90;999.90;;;10.40;99.90;;;;;;5051549;28;20900;-63
2020/12/17 07:07:27;;;;;;;1999.90;999.90;;;10.30;99.90;;;;;;5051325;28;20501;-63
2020/12/17 07:09:55;;;;;;;1999.90;999.90;;;10.30;99.90;;;;;;5047384;28;20462;-63
2020/12/17 07:12:41;;;;;;;1999.90;999.90;;;10.30;99.90;;;;;;5051424;28;20411;-64
2020/12/17 07:15:31;;;;;;;1999.90;999.90;;;10.30;99.90;;;;;;5051111;28;20773;-63
2020/12/17 07:18:23;;;;;;;1999.90;999.90;;;10.20;99.90;;;;;;5051245;28;20439;-63
2020/12/17 07:21:09;;;;;;;1999.90;999.90;;;10.20;99.90;;;;;;5051320;28;20421;-63
2020/12/17 07:23:36;;;;;;;1999.90;999.90;;;10.20;99.90;;;;;;5050688;28;20447;-64
2020/12/17 07:26:07;;;;;;;1999.90;999.90;;;10.20;99.90;;;;;;5050951;28;20471;-63
2020/12/17 07:28:33;;;;;;;1999.90;999.90;;;10.10;99.90;;;;;;5050843;28;20404;-63
2020/12/17 07:30:58;;;;;;;1999.90;999.90;;;10.10;99.90;;;;;;5051051;28;20406;-63
2020/12/17 07:33:50;;;;;;;1999.90;999.90;;;10.10;99.90;;;;;;5051060;28;20402;-63
2020/12/17 07:36:16;;;;;;;1999.90;999.90;;;10.00;99.90;;;;;;5047111;28;20212;-63
2020/12/17 07:38:43;;;;;;;1999.90;999.90;;;10.00;99.90;;;;;;5050674;28;20890;-63
2020/12/17 07:41:25;;;;;;;1999.90;999.90;;;10.00;99.90;;;;;;5050754;28;20413;-63
2020/12/17 07:43:50;;;;;;;1999.90;999.90;;;10.00;99.90;;;;;;5050642;28;20923;-63
2020/12/17 07:46:39;;;;;;;1999.90;999.90;;;10.00;99.90;;;;;;5050506;28;20466;-63
2020/12/17 07:49:22;;;;;;;1999.90;999.90;;;9.90;99.90;;;;;;5050525;28;20180;-63
2020/12/17 07:51:48;;;;;;;1999.90;999.90;;;9.90;99.90;;;;;;5050676;28;20463;-63
2020/12/17 07:54:19;;;;;;;1999.90;999.90;;;10.00;99.90;;;;;;5050550;28;20505;-63
2020/12/17 07:56:44;;;;;;;1999.90;999.90;;;10.00;99.90;;;;;;5050557;28;20470;-63
2020/12/17 07:59:10;;;;;;;1999.90;999.90;;;9.90;99.90;;;;;;5050381;28;20492;-62
2020/12/17 08:01:36;;;;;;;1999.90;999.90;;;9.90;99.90;;;;;;5050623;28;20168;-63
2020/12/17 08:04:01;;;;;;;1999.90;999.90;;;9.90;99.90;;;;;;5050556;28;20172;-63
2020/12/17 08:06:28;;;;;;;1999.90;999.90;;;9.80;99.90;;;;;;5050402;28;20192;-63
2020/12/17 08:09:04;;;;;;;1999.90;999.90;;;9.90;99.90;;;;;;5050315;28;20171;-63
2020/12/17 08:11:30;;;;;;;1999.90;999.90;;;9.80;99.90;;;;;;5050688;28;20487;-62
2020/12/17 08:14:01;;;;;;;1999.90;999.90;;;9.90;99.90;;;;;;5050723;28;20414;-63
2020/12/17 08:16:27;;;;;;;1999.90;999.90;;;9.90;99.90;;;;;;5050745;28;20492;-61
2020/12/17 08:18:55;;;;;;;1999.90;999.90;;;10.00;99.90;;;;;;5050291;28;20519;-61
2020/12/17 08:21:21;;;;;;;1999.90;999.90;;;10.00;99.90;;;;;;5050525;28;20422;-61
2020/12/17 08:23:47;;;;;;;1999.90;999.90;;;10.10;99.90;;;;;;5050402;28;20497;-61
2020/12/17 08:26:20;;;;;;;1999.90;999.90;;;10.10;99.90;;;;;;5050212;28;20462;-62
2020/12/17 08:28:47;;;;;;;1999.90;999.90;;;10.00;99.90;;;;;;5050549;28;20954;-57
2020/12/17 08:31:23;;;;;;;1999.90;999.90;;;10.00;99.90;;;;;;5050389;28;20918;-60
2020/12/17 08:33:52;;;;;;;1999.90;999.90;;;10.00;99.90;;;;;;5050436;28;20390;-61
2020/12/17 08:36:27;;;;;;;1999.90;999.90;;;10.00;99.90;;;;;;5050501;28;20430;-59
2020/12/17 08:39:12;;;;;;;1999.90;999.90;;;10.00;99.90;;;;;;5050089;28;20409;-59
2020/12/17 08:41:51;;;;;;;1999.90;999.90;;;10.00;99.90;;;;;;5050537;28;20400;-60
2020/12/17 08:44:26;;;;;;;1999.90;999.90;;;10.00;99.90;;;;;;5050400;28;20398;-60
2020/12/17 08:47:00;;;;;;;1999.90;999.90;;;10.10;99.90;;;;;;5050291;28;20449;-60
2020/12/17 08:49:27;;;;;;;1999.90;999.90;;;10.10;99.90;;;;;;5050337;28;20424;-59
2020/12/17 08:51:53;;;;;;;1999.90;999.90;;;10.20;99.90;;;;;;5050409;28;20399;-61
2020/12/17 08:54:26;;;;;;;1999.90;999.90;;;10.10;99.90;;;;;;5050196;28;20399;-61
2020/12/17 08:56:57;;;;;;;1999.90;999.90;;;10.10;99.90;;;;;;5053757;28;20484;-59
2020/12/17 08:59:22;;;;;;;1999.90;999.90;;;10.10;99.90;;;;;;5053526;28;20406;-59
2020/12/17 09:01:49;;;;;;;1999.90;999.90;;;10.10;99.90;;;;;;5053624;28;20458;-59
2020/12/17 09:04:14;;;;;;;1999.90;999.90;;;10.10;99.90;;;;;;5053786;28;20167;-58
2020/12/17 09:06:40;;;;;;;1999.90;999.90;;;10.10;99.90;;;;;;5053547;28;20445;-56
2020/12/17 09:09:18;;;;;;;1999.90;999.90;;;10.20;99.90;;;;;;5053275;28;20168;-59
2020/12/17 09:11:46;;;;;;;1999.90;999.90;;;10.20;99.90;;;;;;5053532;28;20518;-59
2020/12/17 09:14:13;;;;;;;1999.90;999.90;;;10.30;99.90;;;;;;5053596;28;20763;-60
2020/12/17 09:16:41;;;;;;;1999.90;999.90;;;10.30;99.90;;;;;;5053520;28;20419;-58
2020/12/17 09:19:08;;;;;;;1999.90;999.90;;;10.30;99.90;;;;;;5053437;28;20449;-60
2020/12/17 09:21:36;;;;;;;1999.90;999.90;;;10.40;99.90;;;;;;5053334;28;20920;-60
2020/12/17 09:24:02;;;;;;;1999.90;999.90;;;10.40;99.90;;;;;;5053442;28;20443;-59
2020/12/17 09:26:28;;;;;;;1999.90;999.90;;;10.40;99.90;;;;;;5053109;28;20467;-60
2020/12/17 09:29:00;;;;;;;1999.90;999.90;;;10.40;99.90;;;;;;5053194;28;20407;-60
2020/12/17 09:31:33;;;;;;;1999.90;999.90;;;10.40;99.90;;;;;;5053385;28;20401;-61
2020/12/17 09:34:06;;;;;;;1999.90;999.90;;;10.50;99.90;;;;;;5053077;28;20441;-61
2020/12/17 09:36:31;;;;;;;1999.90;999.90;;;10.60;99.90;;;;;;5052913;28;20543;-55
2020/12/17 09:39:06;;;;;;;1999.90;999.90;;;10.70;99.90;;;;;;5052766;28;20407;-55
2020/12/17 09:41:31;;;;;;;1999.90;999.90;;;10.70;99.90;;;;;;5053171;28;20197;-58
2020/12/17 09:43:57;;;;;;;1999.90;999.90;;;10.90;99.90;;;;;;5052818;28;20454;-60
2020/12/17 09:46:24;;;;;;;1999.90;999.90;;;10.90;99.90;;;;;;5052419;28;20214;-59
2020/12/17 09:48:49;;;;;;;1999.90;999.90;;;11.00;99.90;;;;;;5052583;28;20253;-59
2020/12/17 09:51:20;;;;;;;1999.90;999.90;;;11.00;99.90;;;;;;5052762;28;20541;-62
2020/12/17 09:53:46;;;;;;;1999.90;999.90;;;11.10;99.90;;;;;;5052606;28;20211;-57
2020/12/17 09:56:13;;;;;;;1999.90;999.90;;;11.10;99.90;;;;;;5052516;28;20521;-59
2020/12/17 09:58:43;;;;;;;1999.90;999.90;;;11.10;99.90;;;;;;5052381;28;20403;-58
2020/12/17 10:01:09;;;;;;;1999.90;999.90;;;11.10;99.90;;;;;;5052689;28;20913;-61
2020/12/17 10:03:34;;;;;;;1999.90;999.90;;;11.20;99.90;;;;;;5052466;28;20405;-57
2020/12/17 10:06:00;;;;;;;1999.90;999.90;;;11.20;99.90;;;;;;5052331;28;20307;-59
2020/12/17 10:08:26;;;;;;;1999.90;999.90;;;11.20;99.90;;;;;;5052101;28;20174;-60
2020/12/17 10:10:51;;;;;;;1999.90;999.90;;;11.20;99.90;;;;;;5052376;28;20204;-59
2020/12/17 10:13:17;;;;;;;1999.90;999.90;;;11.20;99.90;;;;;;5052425;28;20166;-61
2020/12/17 10:15:43;;;;;;;1999.90;999.90;;;11.20;99.90;;;;;;5052260;28;20606;-62
2020/12/17 10:18:08;;;;;;;1999.90;999.90;;;11.30;99.90;;;;;;5052270;28;20677;-58
2020/12/17 10:20:34;;;;;;;1999.90;999.90;;;11.30;99.90;;;;;;5052093;28;20646;-58
2020/12/17 10:23:00;;;;;;;1999.90;999.90;;;11.30;99.90;;;;;;5052139;28;20172;-59
2020/12/17 10:25:25;;;;;;;1999.90;999.90;;;11.30;99.90;;;;;;5052044;28;20250;-61
2020/12/17 10:28:01;;;;;;;1999.90;999.90;;;11.40;99.90;;;;;;5032534;28;20207;-58
2020/12/17 10:30:27;;;;;;;1999.90;999.90;;;11.40;99.90;;;;;;5031312;28;20252;-57
2020/12/17 10:32:52;;;;;;;1999.90;999.90;;;11.50;99.90;;;;;;5031428;28;20967;-53
2020/12/17 10:35:18;;;;;;;1999.90;999.90;;;11.60;99.90;;;;;;5031659;28;20249;-56
2020/12/17 10:37:44;;;;;;;1999.90;999.90;;;11.80;99.90;;;;;;5028503;28;20957;-61
2020/12/17 10:40:11;;;;;;;1999.90;999.90;;;11.90;99.90;;;;;;5029834;28;20402;-57
2020/12/17 10:42:40;;;;;;;1999.90;999.90;;;12.00;99.90;;;;;;5030367;28;20177;-59
2020/12/17 10:45:09;;;;;;;1999.90;999.90;;;12.10;99.90;;;;;;5012838;28;20981;-53
2020/12/17 10:47:35;;;;;;;1999.90;999.90;;;12.10;99.90;;;;;;5030639;28;20450;-53
2020/12/17 10:50:02;;;;;;;1999.90;999.90;;;12.00;99.90;;;;;;5030074;28;20403;-56
2020/12/17 10:52:27;;;;;;;1999.90;999.90;;;12.00;99.90;;;;;;5012527;28;20422;-59
2020/12/17 10:54:53;;;;;;;1999.90;999.90;;;12.00;99.90;;;;;;5030522;28;20419;-57
2020/12/17 10:57:19;;;;;;;1999.90;999.90;;;12.10;99.90;;;;;;5030354;28;20195;-59
2020/12/17 10:59:47;;;;;;;1999.90;999.90;;;12.10;99.90;;;;;;5029746;28;20194;-58
2020/12/17 11:02:13;;;;;;;1999.90;999.90;;;12.20;99.90;;;;;;5030039;28;20415;-61
2020/12/17 11:04:39;;;;;;;1999.90;999.90;;;12.30;99.90;;;;;;5028496;28;20458;-56
2020/12/17 11:07:05;;;;;;;1999.90;999.90;;;12.10;99.90;;;;;;5029311;28;20456;-60
2020/12/17 11:09:30;;;;;;;1999.90;999.90;;;12.10;99.90;;;;;;5029406;28;20423;-60
2020/12/17 11:11:56;;;;;;;1999.90;999.90;;;12.10;99.90;;;;;;5029761;28;20785;-60
2020/12/17 11:14:22;;;;;;;1999.90;999.90;;;12.20;99.90;;;;;;5028876;28;20228;-60
2020/12/17 11:16:49;;;;;;;1999.90;999.90;;;12.10;99.90;;;;;;5030006;28;20215;-61
2020/12/17 11:19:14;;;;;;;1999.90;999.90;;;12.20;99.90;;;;;;5029000;28;20257;-53
2020/12/17 11:21:40;;;;;;;1999.90;999.90;;;12.20;99.90;;;;;;5030747;28;20554;-58
2020/12/17 11:24:06;;;;;;;1999.90;999.90;;;12.30;99.90;;;;;;5043459;28;20184;-59
2020/12/17 11:26:31;;;;;;;1999.90;999.90;;;13.00;99.90;;;;;;5026194;28;20262;-59
2020/12/17 11:28:58;;;;;;;1999.90;999.90;;;13.50;99.90;;;;;;5025767;28;20650;-59
2020/12/17 11:31:28;;;;;;;1999.90;999.90;;;13.90;99.90;;;;;;5025268;28;20196;-58
2020/12/17 11:33:55;;;;;;;1999.90;999.90;;;14.20;99.90;;;;;;5026732;28;20634;-60
2020/12/17 11:36:20;;;;;;;1999.90;999.90;;;14.40;99.90;;;;;;5026583;28;20450;-60
2020/12/17 11:38:47;;;;;;;1999.90;999.90;;;14.20;99.90;;;;;;5025366;28;20963;-60
2020/12/17 11:41:13;;;;;;;1999.90;999.90;;;14.30;99.90;;;;;;5026383;28;20211;-60
2020/12/17 11:43:38;;;;;;;1999.90;999.90;;;14.70;99.90;;;;;;5026361;28;20406;-61
2020/12/17 11:46:04;;;;;;;1999.90;999.90;;;15.00;99.90;;;;;;5025247;28;20481;-60
2020/12/17 11:48:30;;;;;;;1999.90;999.90;;;15.40;99.90;;;;;;5025920;28;20542;-60
2020/12/17 11:50:55;;;;;;;1999.90;999.90;;;15.50;99.90;;;;;;5026492;28;20194;-59
2020/12/17 11:53:21;;;;;;;1999.90;999.90;;;15.50;99.90;;;;;;5025359;28;20180;-60
2020/12/17 11:55:47;;;;;;;1999.90;999.90;;;15.30;99.90;;;;;;5026668;28;20638;-61
2020/12/17 11:58:12;;;;;;;1999.90;999.90;;;15.10;99.90;;;;;;5025609;28;20176;-59
2020/12/17 12:00:39;;;;;;;1999.90;999.90;;;15.10;99.90;;;;;;5025633;28;20301;-59
2020/12/17 12:03:04;;;;;;;1999.90;999.90;;;15.40;99.90;;;;;;5026488;28;20493;-61